SPHY

Andahuaylas Airport

Andahuaylas, Peru
SPHY 171700Z 1718/1818 36010KT 8000 FEW012 BKN070 TX14/1719Z TN02/1811Z BECMG 1723/1801 00000KT
Issued Valid From Valid To
Jan-17 @ 17:00 UTC
(6 hours ago)
Jan-17 @ 18:00 UTC
(5 hours ago)
Jan-18 @ 18:00 UTC
(in 19 hours)
Expired Click to View Jan-17 @ 18:00 to Jan-17 @ 23:00
SPHY 171700Z 1718/1818 36010KT 8000 FEW012 BKN070 TX14/1719Z TN02/1811Z
Wind Visibility Clouds
360° at 10 knots 7,998 meters
  • Few at 1,200' AGL
  • Broken at 7,000' AGL
Becoming Jan-17 @ 23:00 to Jan-18 @ 18:00
BECMG 1723/1801 00000KT
Visibility Clouds
7,998 meters
  • Few at 1,200' AGL
  • Broken at 7,000' AGL
SPHY 171700Z 1718/1818 36010KT 8000 FEW012 BKN070 TX14/1719Z TN02/1811Z BECMG 1723/1801 00000KT
Issued Jan-17 @ 17:00 UTC
(6 hours ago)
Valid From Jan-17 @ 18:00 UTC
(5 hours ago)
Valid To Jan-18 @ 18:00 UTC
(in 19 hours)
Jan-17 @ 18:00 - Jan-17 @ 23:00
Wind Visibility
360° at 10 knots 7,998 meters
Clouds
  • Few at 1,200' AGL
  • Broken at 7,000' AGL
Becoming Jan-17 @ 23:00 - Jan-18 @ 18:00
Clouds
  • Few at 1,200' AGL
  • Broken at 7,000' AGL